Terminal Aerodrome Forecast
Issued by NWS

Home | Current Version | Previous Version | Text Only | Print | Product List | Glossary On
Versions: 1 2 3 4 5 6 7 8 9 10 11 12 13 14 15 16 17 18 19 20
362
FTUS44 KBMX 280520
TAFMGM
TAF
KMGM 280520Z 2806/2906 00000KT P6SM BKN250
     FM281600 27005KT P6SM OVC250
     FM282000 27007KT P6SM VCSH OVC100 PROB30 2822/2902 4SM TSRA
      BKN050CB OVC100=

USA.gov is the U.S. government's official web portal to all federal, state and local government web resources and services.